Tucson, AZ

8:13 AM MST on September 17, 2014 (GMT -0700)
UA WRRC WEATHER | Change Station
CLOSE
Current Station
Personal Weather Station
Location: Tucson, AZ
Elevation: 2431 ft
Nearby Weather Stations
Active Advisory: Flash Flood Watch Active Notice: Public Information Statement

Elev 2431 ft 32.23 °N, 110.94 °W | Updated 7 minutes ago

Rain
Rain
73.5 °F
Feels Like 72 °F
N
0.0
Wind Variable Wind from SSE
Gusts 1.0 mph

Today
High -- | Low -- °F
--% Chance of Precip.
Yesterday
High -- | Low -- °F
Precip. -- in
6:09 AM 6:27 PM
Waning Crescent, 35% visible
Pressure 29.78 in
Visibility 10.0 miles
Clouds Clear
Heat Index 72 °F
Dew Point 70 °F
Humidity 89%
Rainfall 0.00 in
Snow Depth 0 in , 0 in , 0 in
UV 2 out of 12
Pollen .90 out of 12
Air Quality Not available.
Flu Activity Not available.
METAR KDMA 171458Z AUTO 16002KT 10SM CLR 23/21 A2990 RMK AO2 RAB1434DZB1402E1434 SLP085 P0001 60001 T02250212 52008 $

More Conditions Fewer Conditions

Pressure 29.78 in
Visibility 10.0 miles
Clouds Clear
Heat Index 72 °F
Dew Point 70 °F
Humidity 89%
Rainfall 0.00 in
Snow Depth 0 in , 0 in , 0 in
UV 2 out of 12
Pollen .90 out of 12
Air Quality Not available.
Flu Activity Not available.
METAR KDMA 171458Z AUTO 16002KT 10SM CLR 23/21 A2990 RMK AO2 RAB1434DZB1402E1434 SLP085 P0001 60001 T02250212 52008 $

More Conditions Fewer Conditions

10-Day Weather Forecast

Almanac

Astronomy

Sep. 17, 2014 Rise Set
Actual Time 6:09 AM MST 6:27 PM MST
Civil Twilight 5:44 AM MST 6:51 PM MST
Nautical Twilight 5:15 AM MST 7:20 PM MST
Astronomical Twilight 4:46 AM MST 7:49 PM MST
Moon 12:26 AM MST 2:25 PM MST
Length of Visible Light 13h 07m
Length of Day
12h 18m
Tomorrow will be 1m 57s shorter.
Waning Crescent, 35% of the Moon is Illuminated
Today
Waning Crescent
Sep 24
New
Oct 1
First Quarter
Oct 8
Full
Oct 15
Last Quarter

Today's Extremes

State Highs State Lows

Community

WunderPhotos

Upload Photos

1,754,067 photos uploaded!

WunderBlogs® & News

Nearby

Snow Depth

Station Depth Elevation
Wildcat 0 in 7850 ft
Snowslide Canyon 0 in 9730 ft
Mormon Mountain 0 in 7500 ft
Maverick Fork 0 in 9200 ft
Heber 0 in 7640 ft

Earthquake Activity

City Distance Mag. Time & Date
Lordsburg, New Mexico 109 miles 3.5 4:55 AM MST
2014-09-15
Minimum magnitude displayed is 2.5.

Coastal Water Temperatures

Place Temperature
No Stations Reporting

Nearby Weather Stations